createdAt,value
2022-08-03T00:01:49.885Z,1.42
2022-08-03T00:04:16.655Z,1.55
2022-08-03T00:06:43.521Z,1.50
2022-08-03T00:09:10.420Z,1.90
2022-08-03T00:11:37.578Z,1.52
2022-08-03T00:14:05.901Z,1.67
2022-08-03T00:16:32.595Z,1.73
2022-08-03T00:19:00.771Z,1.70
2022-08-03T00:21:29.310Z,2.10
2022-08-03T00:23:56.077Z,1.90
2022-08-03T00:26:22.757Z,1.95
2022-08-03T00:28:50.307Z,2.20
2022-08-03T00:31:25.519Z,1.98
2022-08-03T00:34:04.220Z,1.75
2022-08-03T00:36:31.014Z,1.85
2022-08-03T00:38:57.627Z,1.95
2022-08-03T00:41:24.301Z,1.90
2022-08-03T00:43:51.113Z,1.65
2022-08-03T00:46:21.629Z,1.98
2022-08-03T00:48:53.424Z,1.85
2022-08-03T00:51:24.014Z,1.85
2022-08-03T00:53:51.107Z,1.98
2022-08-03T00:56:18.533Z,1.98
2022-08-03T00:58:46.964Z,1.70
2022-08-03T01:01:14.923Z,1.75
2022-08-03T01:03:41.889Z,2.10
2022-08-03T01:06:23.106Z,2.15
2022-08-03T01:09:08.332Z,2.38
2022-08-03T01:11:59.866Z,2.35
2022-08-03T01:14:34.732Z,2.47
2022-08-03T01:17:54.005Z,2.17
2022-08-03T01:20:24.260Z,2.30
2022-08-03T01:23:29.020Z,2.25
2022-08-03T01:26:23.704Z,2.53
2022-08-03T01:29:09.832Z,2.40
2022-08-03T01:32:53.391Z,2.33
2022-08-03T01:34:35.606Z,2.20
2022-08-03T01:37:07.489Z,2.83
2022-08-03T01:39:38.259Z,2.58
2022-08-03T01:42:07.636Z,2.67
2022-08-03T01:44:38.607Z,2.10
2022-08-03T01:47:06.940Z,2.42
2022-08-03T01:49:38.833Z,2.60
2022-08-03T01:52:07.470Z,2.30
2022-08-03T01:54:43.410Z,2.83
2022-08-03T01:57:11.478Z,2.60
2022-08-03T01:59:40.398Z,2.60
2022-08-03T02:02:29.116Z,2.22
2022-08-03T02:04:58.791Z,2.47
2022-08-03T02:07:27.163Z,2.70
2022-08-03T02:09:55.687Z,2.50
2022-08-03T02:12:24.951Z,2.55
2022-08-03T02:14:51.891Z,2.40
2022-08-03T02:17:39.743Z,2.83
2022-08-03T02:20:09.086Z,3.00
2022-08-03T02:22:37.442Z,3.03
2022-08-03T02:25:04.257Z,2.45
2022-08-03T02:27:34.821Z,2.47
2022-08-03T02:30:08.953Z,2.67
2022-08-03T02:32:41.427Z,2.70
2022-08-03T02:35:12.597Z,3.15
2022-08-03T02:37:49.829Z,2.85
2022-08-03T02:40:19.262Z,2.90
2022-08-03T02:42:49.505Z,2.75
2022-08-03T02:45:18.412Z,2.70
2022-08-03T02:47:54.100Z,3.17
2022-08-03T02:50:23.042Z,2.28
2022-08-03T02:52:51.238Z,3.00
2022-08-03T02:55:19.748Z,2.90
2022-08-03T02:57:47.472Z,3.08
2022-08-03T03:00:27.465Z,3.30
2022-08-03T03:02:58.863Z,3.10
2022-08-03T03:05:55.377Z,3.25
2022-08-03T03:08:17.698Z,3.00
2022-08-03T03:10:46.603Z,3.05
2022-08-03T03:13:16.972Z,3.47
2022-08-03T03:15:45.891Z,3.55
2022-08-03T03:18:17.755Z,3.25
2022-08-03T03:20:48.091Z,3.65
2022-08-03T03:23:15.525Z,3.80
2022-08-03T03:25:42.771Z,3.80
2022-08-03T03:28:10.835Z,3.63
2022-08-03T03:30:37.557Z,3.63
2022-08-03T03:33:04.289Z,3.88
2022-08-03T03:35:31.488Z,4.20
2022-08-03T03:38:05.528Z,3.85
2022-08-03T03:40:32.215Z,4.07
2022-08-03T03:42:58.928Z,3.65
2022-08-03T03:45:26.818Z,4.00
2022-08-03T03:47:53.498Z,4.13
2022-08-03T03:50:22.448Z,3.78
2022-08-03T03:52:49.083Z,4.30
2022-08-03T03:55:17.622Z,3.90
2022-08-03T03:57:44.280Z,4.15
2022-08-03T04:00:12.900Z,3.72
2022-08-03T04:02:39.841Z,4.35
2022-08-03T04:05:26.863Z,4.10
2022-08-03T04:08:22.107Z,4.22
2022-08-03T04:11:13.023Z,3.92
2022-08-03T04:13:49.814Z,4.18
2022-08-03T04:16:20.760Z,3.50
2022-08-03T04:18:52.525Z,3.85
2022-08-03T04:21:21.136Z,5.00
2022-08-03T04:23:51.003Z,4.10
2022-08-03T04:26:27.549Z,4.47
2022-08-03T04:28:55.218Z,4.32
2022-08-03T04:31:24.594Z,3.95
2022-08-03T04:33:52.903Z,4.43
2022-08-03T04:36:26.349Z,4.38
2022-08-03T04:38:55.601Z,4.20
2022-08-03T04:41:24.965Z,4.70
2022-08-03T04:43:54.980Z,3.88
2022-08-03T04:46:26.180Z,4.32
2022-08-03T04:48:53.563Z,4.53
2022-08-03T04:51:20.968Z,3.75
2022-08-03T04:53:47.899Z,4.57
2022-08-03T04:56:14.510Z,4.05
2022-08-03T04:58:41.196Z,4.47
2022-08-03T05:01:07.926Z,4.45
2022-08-03T05:03:34.460Z,4.40
2022-08-03T05:06:09.511Z,4.45
2022-08-03T05:08:46.136Z,4.50
2022-08-03T05:11:17.832Z,4.63
2022-08-03T05:13:45.665Z,4.57
2022-08-03T05:16:14.008Z,4.57
2022-08-03T05:18:45.095Z,4.55
2022-08-03T05:21:17.082Z,4.82
2022-08-03T05:23:45.161Z,4.78
2022-08-03T05:26:12.187Z,4.90
2022-08-03T05:28:39.283Z,4.07
2022-08-03T05:31:14.890Z,4.95
2022-08-03T05:33:41.626Z,4.43
2022-08-03T05:36:08.243Z,4.68
2022-08-03T05:38:35.568Z,4.90
2022-08-03T05:41:23.196Z,4.57
2022-08-03T05:43:53.978Z,4.82
2022-08-03T05:46:21.968Z,4.80
2022-08-03T05:48:48.743Z,4.55
2022-08-03T05:51:15.469Z,4.78
2022-08-03T05:53:43.183Z,4.43
2022-08-03T05:56:13.714Z,4.63
2022-08-03T05:58:47.388Z,4.45
2022-08-03T06:01:16.075Z,4.82
2022-08-03T06:03:42.818Z,4.07
2022-08-03T06:06:09.651Z,4.70
2022-08-03T06:08:36.421Z,4.40
2022-08-03T06:11:03.742Z,4.50
2022-08-03T06:13:30.593Z,4.00
2022-08-03T06:15:57.409Z,4.30
2022-08-03T06:18:26.774Z,4.10
2022-08-03T06:20:54.306Z,4.38
2022-08-03T06:23:21.969Z,4.20
2022-08-03T06:25:48.725Z,4.55
2022-08-03T06:28:42.387Z,4.25
2022-08-03T06:31:03.600Z,4.30
2022-08-03T06:33:48.517Z,4.10
2022-08-03T06:36:20.137Z,4.78
2022-08-03T06:38:46.795Z,4.47
2022-08-03T06:41:13.605Z,3.90
2022-08-03T06:44:03.305Z,4.60
2022-08-03T06:46:26.746Z,3.83
2022-08-03T06:48:53.413Z,4.43
2022-08-03T06:51:20.190Z,3.67
2022-08-03T06:53:46.767Z,4.00
2022-08-03T06:56:13.353Z,4.22
2022-08-03T06:58:39.923Z,4.38
2022-08-03T07:01:06.615Z,3.58
2022-08-03T07:03:33.274Z,4.05
2022-08-03T07:06:00.001Z,3.58
2022-08-03T07:08:33.876Z,3.75
2022-08-03T07:11:01.374Z,4.03
2022-08-03T07:13:28.019Z,3.83
2022-08-03T07:15:56.145Z,3.10
2022-08-03T07:18:28.362Z,3.72
2022-08-03T07:20:57.462Z,3.55
2022-08-03T07:23:24.308Z,2.85
2022-08-03T07:25:51.000Z,3.30
2022-08-03T07:28:18.258Z,3.30
2022-08-03T07:30:44.982Z,3.35
2022-08-03T07:33:11.718Z,2.65
2022-08-03T07:35:38.746Z,2.92
2022-08-03T07:38:05.360Z,2.67
2022-08-03T07:40:32.234Z,2.92
2022-08-03T07:42:59.963Z,2.50
2022-08-03T07:45:26.922Z,2.78
2022-08-03T07:47:54.543Z,2.15
2022-08-03T07:50:22.204Z,2.78
2022-08-03T07:52:50.194Z,2.10
2022-08-03T07:55:19.252Z,2.42
2022-08-03T07:57:46.040Z,2.47
2022-08-03T08:00:17.990Z,2.45
2022-08-03T08:02:45.510Z,2.50
2022-08-03T08:05:12.698Z,2.40
2022-08-03T08:07:40.458Z,2.20
2022-08-03T08:10:10.109Z,2.00
2022-08-03T08:12:37.814Z,1.80
2022-08-03T08:15:05.934Z,2.10
2022-08-03T08:17:41.912Z,2.20
2022-08-03T08:20:28.329Z,2.05
2022-08-03T08:23:02.112Z,2.05
2022-08-03T08:25:31.135Z,1.67
2022-08-03T08:28:29.547Z,1.55
2022-08-03T08:30:47.149Z,1.63
2022-08-03T08:33:23.009Z,2.13
2022-08-03T08:35:51.651Z,1.85
2022-08-03T08:38:18.264Z,2.00
2022-08-03T08:40:45.328Z,1.75
2022-08-03T08:43:12.091Z,1.90
2022-08-03T08:45:38.773Z,2.00
2022-08-03T08:48:08.445Z,1.73
2022-08-03T08:50:37.598Z,1.80
2022-08-03T08:53:09.759Z,2.17
2022-08-03T08:55:59.082Z,1.83
2022-08-03T08:58:28.592Z,1.65
2022-08-03T09:00:55.670Z,1.60
2022-08-03T09:03:26.159Z,1.85
2022-08-03T09:05:56.670Z,1.83
2022-08-03T09:08:23.351Z,1.83
2022-08-03T09:10:49.943Z,1.70
2022-08-03T09:13:16.669Z,1.90
2022-08-03T09:16:00.682Z,1.75
2022-08-03T09:18:32.376Z,1.67
2022-08-03T09:21:33.694Z,1.70
2022-08-03T09:24:05.665Z,1.75
2022-08-03T09:26:35.734Z,1.75
2022-08-03T09:29:13.841Z,1.40
2022-08-03T09:31:44.187Z,1.50
2022-08-03T09:34:13.393Z,1.70
2022-08-03T09:36:50.341Z,1.70
2022-08-03T09:39:40.473Z,1.42
2022-08-03T09:42:14.835Z,1.70
2022-08-03T09:44:45.465Z,1.55
2022-08-03T09:47:14.290Z,1.45
2022-08-03T09:49:43.174Z,1.80
2022-08-03T09:52:38.827Z,1.40
2022-08-03T09:56:31.555Z,1.60
2022-08-03T09:58:06.246Z,1.73
2022-08-03T10:00:32.810Z,1.50
2022-08-03T10:03:05.510Z,1.90
2022-08-03T10:05:33.116Z,1.55
2022-08-03T10:07:59.669Z,1.70
2022-08-03T10:10:30.282Z,1.48
2022-08-03T10:13:00.313Z,1.65
2022-08-03T10:16:22.503Z,1.75
2022-08-03T10:18:14.442Z,1.60
2022-08-03T10:20:49.410Z,2.05
2022-08-03T10:23:18.238Z,1.65
2022-08-03T10:25:49.468Z,2.08
2022-08-03T10:28:18.862Z,1.60
2022-08-03T10:30:50.566Z,1.55
2022-08-03T10:33:50.689Z,1.67
2022-08-03T10:36:19.507Z,1.42
2022-08-03T10:38:53.162Z,1.80
2022-08-03T10:41:27.242Z,1.40
2022-08-03T10:44:03.587Z,1.88
2022-08-03T10:46:30.164Z,1.50
2022-08-03T10:48:57.738Z,1.38
2022-08-03T10:51:25.126Z,1.88
2022-08-03T10:53:54.723Z,1.45
2022-08-03T10:56:53.488Z,1.40
2022-08-03T10:59:46.307Z,1.30
2022-08-03T11:02:14.403Z,1.75
2022-08-03T11:04:42.903Z,1.33
2022-08-03T11:07:21.907Z,1.23
2022-08-03T11:09:51.117Z,1.63
2022-08-03T11:12:30.175Z,1.20
2022-08-03T11:15:00.974Z,2.00
2022-08-03T11:17:28.091Z,1.40
2022-08-03T11:19:57.550Z,1.80
2022-08-03T11:22:25.468Z,1.65
2022-08-03T11:24:54.276Z,1.48
2022-08-03T11:27:22.880Z,1.73
2022-08-03T11:30:08.741Z,1.30
2022-08-03T11:32:38.522Z,1.48
2022-08-03T11:35:21.853Z,1.63
2022-08-03T11:38:03.234Z,1.40
2022-08-03T11:40:42.137Z,1.35
2022-08-03T11:43:26.676Z,1.40
2022-08-03T11:46:04.549Z,1.20
2022-08-03T11:48:38.756Z,1.20
2022-08-03T11:51:07.862Z,1.13
2022-08-03T11:53:42.172Z,2.15
2022-08-03T11:56:12.499Z,1.58
2022-08-03T11:59:01.103Z,1.38
2022-08-03T12:01:35.152Z,1.10
2022-08-03T12:04:05.429Z,1.65
2022-08-03T12:06:52.490Z,1.13
2022-08-03T12:09:21.367Z,1.80
2022-08-03T12:11:51.084Z,1.70
2022-08-03T12:14:49.415Z,1.30
2022-08-03T12:17:15.028Z,1.40
2022-08-03T12:19:43.241Z,1.10
2022-08-03T12:22:09.915Z,1.70
2022-08-03T12:24:43.909Z,1.60
2022-08-03T12:27:10.578Z,1.23
2022-08-03T12:29:37.986Z,1.40
2022-08-03T12:32:04.947Z,1.45
2022-08-03T12:34:48.778Z,1.42
2022-08-03T12:37:23.375Z,1.40
2022-08-03T12:40:01.626Z,1.20
2022-08-03T12:42:35.510Z,1.80
2022-08-03T12:45:32.990Z,1.70
2022-08-03T12:48:02.155Z,1.95
2022-08-03T12:50:32.219Z,1.33
2022-08-03T12:53:00.467Z,1.67
2022-08-03T12:55:40.157Z,1.60
2022-08-03T12:58:38.715Z,1.80
2022-08-03T13:01:09.564Z,1.45
2022-08-03T13:03:50.332Z,1.70
2022-08-03T13:06:25.323Z,1.63
2022-08-03T13:09:06.298Z,1.50
2022-08-03T13:11:53.590Z,1.90
2022-08-03T13:14:20.580Z,1.40
2022-08-03T13:16:48.556Z,1.33
2022-08-03T13:19:16.061Z,1.58
2022-08-03T13:22:01.791Z,1.40
2022-08-03T13:24:31.485Z,1.65
2022-08-03T13:26:58.874Z,1.75
2022-08-03T13:29:25.458Z,2.42
2022-08-03T13:31:52.061Z,1.20
2022-08-03T13:34:23.028Z,1.40
2022-08-03T13:37:08.488Z,1.60
2022-08-03T13:39:58.354Z,1.42
2022-08-03T13:42:22.395Z,2.08
2022-08-03T13:44:48.952Z,1.60
2022-08-03T13:47:15.552Z,1.63
2022-08-03T13:49:42.146Z,1.67
2022-08-03T13:52:27.946Z,1.90
2022-08-03T13:54:54.734Z,2.13
2022-08-03T13:58:11.394Z,1.50
2022-08-03T14:00:09.046Z,2.10
2022-08-03T14:02:35.789Z,1.92
2022-08-03T14:05:02.376Z,1.80
2022-08-03T14:07:28.957Z,1.85
2022-08-03T14:09:55.585Z,1.80
2022-08-03T14:12:22.281Z,1.73
2022-08-03T14:14:48.809Z,1.95
2022-08-03T14:17:16.500Z,2.15
2022-08-03T14:19:53.324Z,1.98
2022-08-03T14:22:21.055Z,1.80
2022-08-03T14:24:47.618Z,1.88
2022-08-03T14:27:15.832Z,1.60
2022-08-03T14:29:42.359Z,2.00
2022-08-03T14:32:08.983Z,1.58
2022-08-03T14:34:37.428Z,1.83
2022-08-03T14:37:04.025Z,1.85
2022-08-03T14:39:58.346Z,1.52
2022-08-03T14:42:17.181Z,2.10
2022-08-03T14:44:43.831Z,1.77
2022-08-03T14:47:10.875Z,1.73
2022-08-03T14:50:33.121Z,2.25
2022-08-03T14:52:24.606Z,1.80
2022-08-03T14:54:51.255Z,2.05
2022-08-03T14:57:17.896Z,1.92
2022-08-03T14:59:55.776Z,1.80
2022-08-03T15:02:25.030Z,2.00
2022-08-03T15:04:52.429Z,2.20
2022-08-03T15:07:20.486Z,1.65
2022-08-03T15:09:47.372Z,1.65
2022-08-03T15:12:14.033Z,1.33
2022-08-03T15:14:40.669Z,2.22
2022-08-03T15:17:07.780Z,1.58
2022-08-03T15:20:01.172Z,1.80
2022-08-03T15:22:25.209Z,1.67
2022-08-03T15:26:02.248Z,2.05
2022-08-03T15:28:03.540Z,1.60
2022-08-03T15:30:31.476Z,1.45
2022-08-03T15:33:05.407Z,1.77
2022-08-03T15:35:33.138Z,2.03
2022-08-03T15:38:00.000Z,1.25
2022-08-03T15:40:26.665Z,1.58
2022-08-03T15:42:53.217Z,1.40
2022-08-03T15:45:20.439Z,1.45
2022-08-03T15:47:47.164Z,0.93
2022-08-03T15:50:13.738Z,1.45
2022-08-03T15:52:40.297Z,1.30
2022-08-03T15:55:07.478Z,1.40
2022-08-03T15:57:34.013Z,1.48
2022-08-03T16:00:20.947Z,1.67
2022-08-03T16:03:00.628Z,2.72
2022-08-03T16:05:27.962Z,1.30
2022-08-03T16:07:58.574Z,1.40
2022-08-03T16:10:30.900Z,1.50
2022-08-03T16:12:59.005Z,1.13
2022-08-03T16:15:25.794Z,1.20
2022-08-03T16:17:52.462Z,1.45
2022-08-03T16:20:34.099Z,1.33
2022-08-03T16:23:06.972Z,1.45
2022-08-03T16:25:39.411Z,1.45
2022-08-03T16:28:12.796Z,1.60
2022-08-03T16:30:41.984Z,1.50
2022-08-03T16:33:08.964Z,1.63
2022-08-03T16:35:35.935Z,1.10
2022-08-03T16:38:07.858Z,1.30
2022-08-03T16:40:36.388Z,1.33
2022-08-03T16:43:18.094Z,1.60
2022-08-03T16:45:47.198Z,1.95
2022-08-03T16:48:15.342Z,1.52
2022-08-03T16:50:42.116Z,1.23
2022-08-03T16:53:10.091Z,1.15
2022-08-03T16:55:48.688Z,1.40
2022-08-03T16:58:34.401Z,1.35
2022-08-03T17:01:10.949Z,1.35
2022-08-03T17:04:01.412Z,1.70
2022-08-03T17:06:29.869Z,1.40
2022-08-03T17:09:02.044Z,1.40
2022-08-03T17:11:30.225Z,1.27
2022-08-03T17:14:00.153Z,1.27
2022-08-03T17:16:27.514Z,1.70
2022-08-03T17:19:02.318Z,1.65
2022-08-03T17:21:33.177Z,1.25
2022-08-03T17:24:12.845Z,1.60
2022-08-03T17:26:45.905Z,1.73
2022-08-03T17:29:22.994Z,1.70
2022-08-03T17:31:53.975Z,1.20
2022-08-03T17:34:21.714Z,1.10
2022-08-03T17:37:27.101Z,1.50
2022-08-03T17:39:58.581Z,1.40
2022-08-03T17:42:30.520Z,1.88
2022-08-03T17:47:29.125Z,1.50
2022-08-03T17:50:23.366Z,1.80
2022-08-03T17:52:57.295Z,1.58
2022-08-03T17:55:57.137Z,1.30
2022-08-03T17:58:21.001Z,1.50
2022-08-03T18:02:01.806Z,1.77
2022-08-03T18:04:00.357Z,1.67
2022-08-03T18:06:31.632Z,1.52
2022-08-03T18:09:04.860Z,1.35
2022-08-03T18:11:51.374Z,1.45
2022-08-03T18:15:00.903Z,1.42
2022-08-03T18:17:55.145Z,2.10
2022-08-03T18:20:32.280Z,1.42
2022-08-03T18:23:04.943Z,2.08
2022-08-03T18:25:45.764Z,1.77
2022-08-03T18:28:18.936Z,1.63
2022-08-03T18:30:53.734Z,1.98
2022-08-03T18:34:17.829Z,1.92
2022-08-03T18:36:17.341Z,2.47
2022-08-03T18:38:51.015Z,2.30
2022-08-03T18:41:22.275Z,1.75
2022-08-03T18:44:07.181Z,2.60
2022-08-03T18:47:07.080Z,2.35
2022-08-03T18:50:13.624Z,2.10
2022-08-03T18:52:54.526Z,2.53
2022-08-03T18:55:35.457Z,1.70
2022-08-03T18:58:29.909Z,2.10
2022-08-03T19:01:59.782Z,2.30
2022-08-03T19:04:12.829Z,1.92
2022-08-03T19:06:44.919Z,1.80
2022-08-03T19:09:27.813Z,1.70
2022-08-03T19:12:11.717Z,1.83
2022-08-03T19:14:45.836Z,2.05
2022-08-03T19:17:13.188Z,2.08
2022-08-03T19:19:44.950Z,2.20
2022-08-03T19:22:19.700Z,2.60
2022-08-03T19:24:47.852Z,2.10
2022-08-03T19:27:15.942Z,2.42
2022-08-03T19:29:59.740Z,2.30
2022-08-03T19:32:31.649Z,1.58
2022-08-03T19:35:00.504Z,1.85
2022-08-03T19:37:33.270Z,2.00
2022-08-03T19:40:10.353Z,1.90
2022-08-03T19:42:44.102Z,1.27
2022-08-03T19:45:15.258Z,1.40
2022-08-03T19:47:52.386Z,1.60
2022-08-03T19:50:21.066Z,2.13
2022-08-03T19:52:49.750Z,2.47
2022-08-03T19:55:17.739Z,1.88
2022-08-03T19:57:49.309Z,1.70
2022-08-03T20:00:19.625Z,1.40
2022-08-03T20:02:46.539Z,1.33
2022-08-03T20:08:01.921Z,1.35
2022-08-03T20:10:30.205Z,1.35
2022-08-03T20:12:57.613Z,1.77
2022-08-03T20:15:31.783Z,1.48
2022-08-03T20:17:59.100Z,2.13
2022-08-03T20:20:34.453Z,1.40
2022-08-03T20:23:06.630Z,1.38
2022-08-03T20:25:48.864Z,1.60
2022-08-03T20:28:28.181Z,1.92
2022-08-03T20:30:56.421Z,1.60
2022-08-03T20:33:27.816Z,1.60
2022-08-03T20:36:10.289Z,1.45
2022-08-03T20:38:43.754Z,1.67
2022-08-03T20:41:14.149Z,1.48
2022-08-03T20:43:41.760Z,1.20
2022-08-03T20:46:31.378Z,1.88
2022-08-03T20:49:01.379Z,2.30
2022-08-03T20:51:52.678Z,1.92
2022-08-03T20:54:30.651Z,1.67
2022-08-03T20:57:03.765Z,1.45
2022-08-03T20:59:47.175Z,1.90
2022-08-03T21:02:19.895Z,1.65
2022-08-03T21:05:08.445Z,1.70
2022-08-03T21:08:05.519Z,1.85
2022-08-03T21:10:37.922Z,1.98
2022-08-03T21:13:03.419Z,1.83
2022-08-03T21:13:19.040Z,1.67
2022-08-03T21:16:02.560Z,1.60
2022-08-03T21:18:49.319Z,1.60
2022-08-03T21:21:21.055Z,2.03
2022-08-03T21:23:50.574Z,1.70
2022-08-03T21:26:19.683Z,1.50
2022-08-03T21:28:48.530Z,1.50
2022-08-03T21:31:25.604Z,1.65
2022-08-03T21:33:57.960Z,1.88
2022-08-03T21:36:30.647Z,1.48
2022-08-03T21:38:59.400Z,1.50
2022-08-03T21:41:31.390Z,1.48
2022-08-03T21:44:00.320Z,1.87
2022-08-03T21:46:34.097Z,2.22
2022-08-03T21:50:07.749Z,1.80
2022-08-03T21:51:52.320Z,1.50
2022-08-03T21:54:21.429Z,1.50
2022-08-03T21:56:51.176Z,1.33
2022-08-03T21:59:20.034Z,1.73
2022-08-03T22:01:55.418Z,1.67
2022-08-03T22:04:50.767Z,1.85
2022-08-03T22:07:12.457Z,1.70
2022-08-03T22:09:39.405Z,1.35
2022-08-03T22:12:06.547Z,1.58
2022-08-03T22:14:33.768Z,1.70
2022-08-03T22:17:00.736Z,1.80
2022-08-03T22:19:30.145Z,2.28
2022-08-03T22:21:58.287Z,1.92
2022-08-03T22:24:28.737Z,2.03
2022-08-03T22:27:14.297Z,1.80
2022-08-03T22:29:42.177Z,1.67
2022-08-03T22:32:08.847Z,1.67
2022-08-03T22:34:39.162Z,1.70
2022-08-03T22:37:07.000Z,2.10
2022-08-03T22:39:35.311Z,1.70
2022-08-03T22:42:05.250Z,2.30
2022-08-03T22:44:32.362Z,1.67
2022-08-03T22:46:59.294Z,2.15
2022-08-03T22:49:28.346Z,1.95
2022-08-03T22:51:56.307Z,1.90
2022-08-03T22:54:23.378Z,1.65
2022-08-03T22:56:51.184Z,2.22
2022-08-03T22:59:41.199Z,2.58
2022-08-03T23:02:16.012Z,1.65
2022-08-03T23:04:54.825Z,2.25
2022-08-03T23:07:45.758Z,2.03
2022-08-03T23:10:14.143Z,2.25
2022-08-03T23:12:43.057Z,2.22
2022-08-03T23:15:12.425Z,1.88
2022-08-03T23:17:57.500Z,1.88
2022-08-03T23:20:26.486Z,2.30
2022-08-03T23:22:54.499Z,1.77
2022-08-03T23:25:22.152Z,2.03
2022-08-03T23:28:05.421Z,2.42
2022-08-03T23:30:37.097Z,1.88
2022-08-03T23:33:04.472Z,2.08
2022-08-03T23:36:27.931Z,2.45
2022-08-03T23:38:36.979Z,2.17
2022-08-03T23:41:04.924Z,2.03
2022-08-03T23:43:52.421Z,2.10
2022-08-03T23:46:25.919Z,1.83
2022-08-03T23:48:53.826Z,2.15
2022-08-03T23:51:59.045Z,2.17
2022-08-03T23:54:40.892Z,1.90
2022-08-03T23:57:32.738Z,2.45
